Time;durP1;ratioP1;P1;durP2;ratioP2;P2;SDS_P1;SDS_P2;PMS_P1;PMS_P2;Temp;Humidity;BMP_temperature;BMP_pressure;BME280_temperature;BME280_humidity;BME280_pressure;Samples;Min_cycle;Max_cycle;Signal;HPM_P1;HPM_P2
2023/10/23 00:01:49;;;;;;;2.92;2.40;;;8.30;99.90;;;;;;5016710;28;20450;-65
2023/10/23 00:04:21;;;;;;;3.03;1.92;;;8.30;99.90;;;;;;5022790;28;20038;-64
2023/10/23 00:06:53;;;;;;;6.80;2.58;;;8.40;99.90;;;;;;5023054;28;20041;-64
2023/10/23 00:09:25;;;;;;;2.97;2.05;;;8.40;99.90;;;;;;5020384;28;20113;-64
2023/10/23 00:11:57;;;;;;;4.43;2.63;;;8.30;99.90;;;;;;5022127;28;20050;-64
2023/10/23 00:14:29;;;;;;;2.88;2.55;;;8.30;99.90;;;;;;5019953;28;20511;-65
2023/10/23 00:16:55;;;;;;;4.07;2.70;;;8.30;99.90;;;;;;5016898;28;20400;-64
2023/10/23 00:19:27;;;;;;;3.53;2.20;;;8.40;99.90;;;;;;5027388;28;20052;-64
2023/10/23 00:21:59;;;;;;;2.78;2.10;;;8.30;99.90;;;;;;5011904;28;20510;-64
2023/10/23 00:24:31;;;;;;;4.13;2.28;;;8.30;99.90;;;;;;5011530;28;20041;-64
2023/10/23 00:27:03;;;;;;;3.25;2.08;;;8.20;99.90;;;;;;5012378;28;20042;-65
2023/10/23 00:29:30;;;;;;;2.85;1.90;;;8.20;99.90;;;;;;5022523;28;20043;-64
2023/10/23 00:32:03;;;;;;;5.25;2.30;;;8.20;99.90;;;;;;5010888;28;20071;-65
2023/10/23 00:34:30;;;;;;;2.50;2.30;;;8.20;99.90;;;;;;5015900;28;20140;-64
2023/10/23 00:37:03;;;;;;;5.63;2.47;;;8.20;99.90;;;;;;5020111;28;20111;-65
2023/10/23 00:39:35;;;;;;;4.80;2.80;;;8.10;99.90;;;;;;5021546;28;20464;-64
2023/10/23 00:42:08;;;;;;;4.20;2.50;;;8.10;99.90;;;;;;5003987;28;20063;-65
2023/10/23 00:44:39;;;;;;;4.72;2.47;;;8.10;99.90;;;;;;5017624;28;20144;-64
2023/10/23 00:47:11;;;;;;;2.55;2.35;;;8.10;99.90;;;;;;5019026;28;20059;-64
2023/10/23 00:49:44;;;;;;;4.13;2.38;;;8.00;99.90;;;;;;5033482;28;20556;-64
2023/10/23 00:52:15;;;;;;;4.20;2.70;;;8.00;99.90;;;;;;4996922;28;20070;-64
2023/10/23 00:54:47;;;;;;;5.53;2.63;;;8.00;99.90;;;;;;5020940;28;20065;-64
2023/10/23 00:57:19;;;;;;;4.65;2.45;;;8.00;99.90;;;;;;5012613;28;20060;-65
2023/10/23 00:59:51;;;;;;;3.28;2.50;;;8.00;99.90;;;;;;5006972;28;20054;-64
2023/10/23 01:02:24;;;;;;;3.22;2.60;;;7.90;99.90;;;;;;5002795;28;20058;-64
2023/10/23 01:04:56;;;;;;;5.40;2.90;;;7.90;99.90;;;;;;5022543;28;20417;-64
2023/10/23 01:07:23;;;;;;;4.88;2.65;;;7.90;99.90;;;;;;5016653;28;20412;-65
2023/10/23 01:09:55;;;;;;;6.00;2.47;;;7.90;99.90;;;;;;5002424;28;20137;-64
2023/10/23 01:12:27;;;;;;;3.88;2.40;;;7.90;99.90;;;;;;5018954;28;20040;-65
2023/10/23 01:14:59;;;;;;;4.90;3.65;;;7.90;99.90;;;;;;5019123;28;20046;-64
2023/10/23 01:17:31;;;;;;;2.88;2.53;;;7.90;99.90;;;;;;5004541;28;20053;-64
2023/10/23 01:20:05;;;;;;;5.03;2.90;;;7.90;99.90;;;;;;5019650;28;20042;-65
2023/10/23 01:22:36;;;;;;;3.33;2.45;;;7.90;99.90;;;;;;5013136;28;20392;-64
2023/10/23 01:25:15;;;;;;;4.40;2.40;;;7.90;99.90;;;;;;5011297;28;20061;-65
2023/10/23 01:27:47;;;;;;;5.85;2.88;;;7.90;99.90;;;;;;5021914;28;20097;-64
2023/10/23 01:30:19;;;;;;;4.95;2.58;;;7.90;99.90;;;;;;5010595;28;20123;-64
2023/10/23 01:32:46;;;;;;;3.28;2.38;;;7.90;99.90;;;;;;5013445;28;20040;-64
2023/10/23 01:35:19;;;;;;;4.30;2.78;;;7.90;99.90;;;;;;5012492;28;20048;-64
2023/10/23 01:37:51;;;;;;;3.72;2.53;;;7.80;99.90;;;;;;5020640;28;20518;-65
2023/10/23 01:40:23;;;;;;;2.88;2.30;;;7.80;99.90;;;;;;5020074;28;20049;-64
2023/10/23 01:42:50;;;;;;;3.42;2.13;;;7.80;99.90;;;;;;5018640;28;20471;-64
2023/10/23 01:45:22;;;;;;;4.57;2.33;;;7.80;99.90;;;;;;5017572;28;20046;-64
2023/10/23 01:47:54;;;;;;;2.95;2.40;;;7.80;99.90;;;;;;5016172;28;20042;-64
2023/10/23 01:50:26;;;;;;;3.42;2.53;;;7.70;99.90;;;;;;5014953;28;20417;-64
2023/10/23 01:52:58;;;;;;;4.75;2.70;;;7.70;99.90;;;;;;5020896;28;20038;-64
2023/10/23 01:55:30;;;;;;;3.17;2.53;;;7.70;99.90;;;;;;5017242;28;20049;-64
2023/10/23 01:58:02;;;;;;;4.03;2.88;;;7.70;99.90;;;;;;5011082;28;20042;-64
2023/10/23 02:00:34;;;;;;;3.35;2.10;;;7.60;99.90;;;;;;4993217;28;20137;-64
2023/10/23 02:03:06;;;;;;;2.72;2.00;;;7.60;99.90;;;;;;5003901;28;20058;-64
2023/10/23 02:05:33;;;;;;;2.38;2.08;;;7.60;99.90;;;;;;5015075;28;20052;-65
2023/10/23 02:08:05;;;;;;;4.05;2.55;;;7.60;99.90;;;;;;4998746;28;20049;-64
2023/10/23 02:10:37;;;;;;;2.97;2.33;;;7.50;99.90;;;;;;5019121;28;20042;-65
2023/10/23 02:13:09;;;;;;;4.93;2.03;;;7.60;99.90;;;;;;5019187;28;20048;-65
2023/10/23 02:15:41;;;;;;;2.53;2.25;;;7.60;99.90;;;;;;5017258;28;20045;-64
2023/10/23 02:18:12;;;;;;;2.30;1.92;;;7.50;99.90;;;;;;5020760;28;20049;-65
2023/10/23 02:20:40;;;;;;;2.30;2.10;;;7.60;99.90;;;;;;5016967;28;20429;-65
2023/10/23 02:23:12;;;;;;;2.30;2.00;;;7.50;99.90;;;;;;5015001;28;20049;-64
2023/10/23 02:25:43;;;;;;;3.17;2.40;;;7.50;99.90;;;;;;5031585;28;20064;-65
2023/10/23 02:28:16;;;;;;;3.67;2.20;;;7.50;99.90;;;;;;4995164;28;20042;-65
2023/10/23 02:30:43;;;;;;;4.28;1.88;;;7.50;99.90;;;;;;5009957;28;20121;-65
2023/10/23 02:33:10;;;;;;;3.20;2.08;;;7.50;99.90;;;;;;5022344;28;20524;-64
2023/10/23 02:35:43;;;;;;;3.10;1.88;;;7.50;99.90;;;;;;5013405;28;20046;-64
2023/10/23 02:38:15;;;;;;;4.90;1.98;;;7.50;99.90;;;;;;5018268;28;20070;-64
2023/10/23 02:40:51;;;;;;;3.70;2.30;;;7.50;99.90;;;;;;5027115;28;20042;-64
2023/10/23 02:43:19;;;;;;;5.50;2.30;;;7.60;99.90;;;;;;5003604;28;20045;-64
2023/10/23 02:45:50;;;;;;;4.38;2.20;;;7.50;99.90;;;;;;5016465;28;20576;-64
2023/10/23 02:48:22;;;;;;;3.25;2.20;;;7.50;99.90;;;;;;5030553;28;20046;-64
2023/10/23 02:50:55;;;;;;;3.42;2.50;;;7.40;99.90;;;;;;4999934;28;20107;-64
2023/10/23 02:53:27;;;;;;;5.05;2.20;;;7.40;99.90;;;;;;5005746;28;20053;-64
2023/10/23 02:55:58;;;;;;;4.32;2.15;;;7.40;99.90;;;;;;5013059;28;20043;-65
2023/10/23 02:58:33;;;;;;;2.75;1.88;;;7.40;99.90;;;;;;5013749;28;20478;-64
2023/10/23 03:01:20;;;;;;;3.70;2.08;;;7.40;99.90;;;;;;5019815;28;20056;-64
2023/10/23 03:03:52;;;;;;;6.10;2.67;;;7.40;99.90;;;;;;5011432;28;20049;-64
2023/10/23 03:06:20;;;;;;;3.63;2.25;;;7.40;99.90;;;;;;5012795;28;20037;-64
2023/10/23 03:08:52;;;;;;;3.72;2.20;;;7.40;99.90;;;;;;5018135;28;20041;-64
2023/10/23 03:11:19;;;;;;;3.08;2.00;;;7.40;99.90;;;;;;5015984;28;20148;-64
2023/10/23 03:13:50;;;;;;;4.00;2.00;;;7.40;99.90;;;;;;5003657;28;20037;-64
2023/10/23 03:16:24;;;;;;;2.90;1.95;;;7.40;99.90;;;;;;5017474;28;20045;-65
2023/10/23 03:18:52;;;;;;;2.88;2.10;;;7.40;99.90;;;;;;5021460;28;20068;-64
2023/10/23 03:21:24;;;;;;;3.85;2.28;;;7.40;99.90;;;;;;5001130;28;20045;-68
2023/10/23 03:23:55;;;;;;;2.75;2.00;;;7.40;99.90;;;;;;5017202;28;20074;-64
2023/10/23 03:26:27;;;;;;;6.40;1.98;;;7.40;99.90;;;;;;5030020;28;20041;-63
2023/10/23 03:29:00;;;;;;;4.65;2.10;;;7.40;99.90;;;;;;5017478;28;20065;-71
2023/10/23 03:31:32;;;;;;;2.80;1.60;;;7.40;99.90;;;;;;5013599;28;20421;-64
2023/10/23 03:34:04;;;;;;;3.87;2.30;;;7.50;99.90;;;;;;5013192;28;20511;-64
2023/10/23 03:36:36;;;;;;;5.22;2.10;;;7.70;99.90;;;;;;5023422;28;20040;-65
2023/10/23 03:39:08;;;;;;;4.03;1.88;;;7.70;99.90;;;;;;5019835;28;20044;-65
2023/10/23 03:41:41;;;;;;;3.25;1.90;;;7.70;99.90;;;;;;5004493;28;20077;-65
2023/10/23 03:44:12;;;;;;;2.25;1.85;;;7.60;99.90;;;;;;5019284;28;20049;-65
2023/10/23 03:46:44;;;;;;;2.17;1.88;;;7.50;99.90;;;;;;5020455;28;20049;-65
2023/10/23 03:49:16;;;;;;;3.20;2.45;;;7.50;99.90;;;;;;5019955;28;20049;-65
2023/10/23 03:51:48;;;;;;;3.33;1.98;;;7.40;99.90;;;;;;5025116;28;20042;-65
2023/10/23 03:54:20;;;;;;;2.35;1.63;;;7.40;99.90;;;;;;5019827;28;20112;-65
2023/10/23 03:56:52;;;;;;;2.22;1.65;;;7.30;99.90;;;;;;5015373;28;20398;-65
2023/10/23 03:59:23;;;;;;;3.45;1.90;;;7.20;99.90;;;;;;5018408;28;20049;-64
2023/10/23 04:01:55;;;;;;;2.30;1.60;;;7.20;99.90;;;;;;5011056;28;20734;-65
2023/10/23 04:04:27;;;;;;;2.20;2.00;;;7.10;99.90;;;;;;5016914;28;20045;-65
2023/10/23 04:06:54;;;;;;;3.97;2.30;;;7.10;99.90;;;;;;5014960;28;20038;-64
2023/10/23 04:09:30;;;;;;;3.40;1.85;;;7.10;99.90;;;;;;5012752;28;20034;-65
2023/10/23 04:11:57;;;;;;;2.05;1.70;;;7.10;99.90;;;;;;5024188;28;20095;-65
2023/10/23 04:14:30;;;;;;;4.40;2.03;;;7.00;99.90;;;;;;5001864;28;20128;-65
2023/10/23 04:17:04;;;;;;;2.35;1.80;;;7.00;99.90;;;;;;5019947;28;20533;-65
2023/10/23 04:19:35;;;;;;;2.05;1.65;;;6.90;99.90;;;;;;5019650;28;20475;-65
2023/10/23 04:22:07;;;;;;;2.10;1.67;;;6.90;99.90;;;;;;5003993;28;20158;-65
2023/10/23 04:24:40;;;;;;;2.55;1.80;;;6.80;99.90;;;;;;5017677;28;20141;-64
2023/10/23 04:27:12;;;;;;;4.00;1.77;;;6.80;99.90;;;;;;5002390;28;20042;-64
2023/10/23 04:29:44;;;;;;;5.70;1.98;;;6.70;99.90;;;;;;5008850;28;20129;-65
2023/10/23 04:32:11;;;;;;;3.47;2.17;;;6.70;99.90;;;;;;5016869;28;20518;-64
2023/10/23 04:34:43;;;;;;;2.58;1.63;;;6.70;99.90;;;;;;5018642;28;20041;-65
2023/10/23 04:37:15;;;;;;;3.53;1.63;;;6.60;99.90;;;;;;5014470;28;20038;-65
2023/10/23 04:39:47;;;;;;;3.35;2.20;;;6.60;99.90;;;;;;5013365;28;20061;-64
2023/10/23 04:42:19;;;;;;;3.92;2.30;;;6.60;99.90;;;;;;5015589;28;20037;-65
2023/10/23 04:44:49;;;;;;;7.85;2.25;;;6.60;99.90;;;;;;5029668;28;20740;-64
2023/10/23 04:47:21;;;;;;;4.47;1.90;;;6.60;99.90;;;;;;5018371;28;20405;-65
2023/10/23 04:49:52;;;;;;;4.75;2.00;;;6.50;99.90;;;;;;5017043;28;20038;-65
2023/10/23 04:52:24;;;;;;;2.50;1.98;;;6.50;99.90;;;;;;5015721;28;20038;-64
2023/10/23 04:54:56;;;;;;;3.35;1.90;;;6.40;99.90;;;;;;5014189;28;20033;-66
2023/10/23 04:57:29;;;;;;;4.35;1.80;;;6.50;99.90;;;;;;5016234;28;20570;-65
2023/10/23 05:00:00;;;;;;;4.85;2.00;;;6.40;99.90;;;;;;5020468;28;20441;-64
2023/10/23 05:02:32;;;;;;;3.30;1.83;;;6.40;99.90;;;;;;5010866;28;20685;-64
2023/10/23 05:04:59;;;;;;;7.60;2.35;;;6.40;99.90;;;;;;5009599;28;20042;-64
2023/10/23 05:07:31;;;;;;;5.07;2.42;;;6.30;99.90;;;;;;5014569;28;20472;-65
2023/10/23 05:10:04;;;;;;;8.43;2.05;;;6.30;99.90;;;;;;5020512;28;20037;-64
2023/10/23 05:12:30;;;;;;;3.67;2.08;;;6.30;99.90;;;;;;5016429;28;20880;-65
2023/10/23 05:15:03;;;;;;;4.00;1.67;;;6.30;99.90;;;;;;5017418;28;20501;-64
2023/10/23 05:17:35;;;;;;;2.78;1.67;;;6.20;99.90;;;;;;5015902;28;20065;-64
2023/10/23 05:20:07;;;;;;;3.92;1.70;;;6.20;99.90;;;;;;5003733;28;20042;-65
2023/10/23 05:22:39;;;;;;;3.97;2.40;;;6.10;99.90;;;;;;4992714;28;20046;-64
2023/10/23 05:25:08;;;;;;;3.33;1.88;;;6.10;99.90;;;;;;5020686;28;20044;-65
2023/10/23 05:27:40;;;;;;;4.80;1.98;;;6.10;99.90;;;;;;5014090;28;20418;-64
2023/10/23 05:30:12;;;;;;;5.05;2.63;;;6.10;99.90;;;;;;5011757;28;20561;-64
2023/10/23 05:32:44;;;;;;;9.82;2.28;;;6.10;99.90;;;;;;5014937;28;21327;-65
2023/10/23 05:35:16;;;;;;;6.15;3.00;;;6.10;99.90;;;;;;5024959;28;20034;-65
2023/10/23 05:37:48;;;;;;;8.25;2.13;;;6.10;99.90;;;;;;5009624;28;20065;-65
2023/10/23 05:40:15;;;;;;;5.78;2.92;;;6.10;99.90;;;;;;5013446;28;20045;-64
2023/10/23 05:42:47;;;;;;;7.10;3.80;;;6.10;99.90;;;;;;5016043;28;20038;-64
2023/10/23 05:45:14;;;;;;;12.52;4.35;;;6.10;99.90;;;;;;5024280;28;20037;-65
2023/10/23 05:47:45;;;;;;;11.38;4.38;;;6.00;99.90;;;;;;5017095;28;20038;-64
2023/10/23 05:50:17;;;;;;;16.88;5.00;;;6.10;99.90;;;;;;5018869;28;20570;-64
2023/10/23 05:52:49;;;;;;;6.35;4.18;;;6.10;99.90;;;;;;5019430;28;20346;-64
2023/10/23 05:55:21;;;;;;;17.05;4.60;;;6.10;99.90;;;;;;5016998;28;20049;-64
2023/10/23 05:57:54;;;;;;;7.82;4.03;;;6.10;99.90;;;;;;5018482;28;20080;-64
2023/10/23 06:00:26;;;;;;;6.20;4.38;;;6.10;99.90;;;;;;5015048;28;20437;-64
2023/10/23 06:02:59;;;;;;;6.90;3.97;;;6.10;99.90;;;;;;5010491;28;20040;-64
2023/10/23 06:05:26;;;;;;;6.82;4.05;;;6.10;99.90;;;;;;5016588;28;20310;-65
2023/10/23 06:07:57;;;;;;;6.22;4.00;;;6.10;99.90;;;;;;5014156;28;20037;-65
2023/10/23 06:10:29;;;;;;;5.38;3.95;;;6.10;99.90;;;;;;4999093;28;20042;-65
2023/10/23 06:13:01;;;;;;;10.45;4.70;;;6.10;99.90;;;;;;5015362;28;20820;-65
2023/10/23 06:15:33;;;;;;;8.63;5.65;;;6.10;99.90;;;;;;5014730;28;20045;-65
2023/10/23 06:18:06;;;;;;;5.80;4.63;;;6.10;99.90;;;;;;5017009;28;20046;-64
2023/10/23 06:20:38;;;;;;;5.55;4.20;;;6.10;99.90;;;;;;5020982;28;20124;-64
2023/10/23 06:23:05;;;;;;;4.25;3.85;;;6.10;99.90;;;;;;5018392;28;20041;-64
2023/10/23 06:25:37;;;;;;;5.45;3.53;;;6.10;99.90;;;;;;5019459;28;20046;-65
2023/10/23 06:28:08;;;;;;;4.90;3.45;;;6.10;99.90;;;;;;5017636;28;20045;-64
2023/10/23 06:30:40;;;;;;;8.30;3.90;;;6.10;99.90;;;;;;5014106;28;20547;-64
2023/10/23 06:33:12;;;;;;;7.50;5.68;;;6.10;99.90;;;;;;5021239;28;20057;-64
2023/10/23 06:35:44;;;;;;;5.88;3.80;;;6.10;99.90;;;;;;5015702;28;20131;-64
2023/10/23 06:38:16;;;;;;;6.47;3.63;;;6.20;99.90;;;;;;5005531;28;20038;-64
2023/10/23 06:40:47;;;;;;;19.38;9.52;;;6.10;99.90;;;;;;5015637;28;20502;-64
2023/10/23 06:43:19;;;;;;;13.43;8.32;;;6.20;99.90;;;;;;5020682;28;20049;-64
2023/10/23 06:45:51;;;;;;;12.57;9.70;;;6.10;99.90;;;;;;5017336;28;20564;-64
2023/10/23 06:48:23;;;;;;;14.77;8.52;;;6.10;99.90;;;;;;5022376;28;20129;-64
2023/10/23 06:50:51;;;;;;;13.23;8.95;;;6.10;99.90;;;;;;5020804;28;20413;-64
2023/10/23 06:53:23;;;;;;;11.68;7.53;;;6.10;99.90;;;;;;5021158;28;20054;-64
2023/10/23 06:55:55;;;;;;;9.05;5.72;;;6.10;99.90;;;;;;5022555;28;20117;-65
2023/10/23 06:58:27;;;;;;;7.38;4.93;;;6.20;99.90;;;;;;5024230;28;20520;-64
2023/10/23 07:01:07;;;;;;;7.70;4.68;;;6.10;99.90;;;;;;5017380;28;20040;-64
2023/10/23 07:03:39;;;;;;;5.25;3.15;;;6.10;99.90;;;;;;5016969;28;20044;-64
2023/10/23 07:06:11;;;;;;;6.85;3.67;;;6.10;99.90;;;;;;5022844;28;20063;-64
2023/10/23 07:08:43;;;;;;;10.18;4.43;;;6.10;99.90;;;;;;5014922;28;20050;-64
2023/10/23 07:11:17;;;;;;;10.68;6.25;;;6.10;99.90;;;;;;5014635;28;20416;-64
2023/10/23 07:13:49;;;;;;;12.18;7.10;;;6.20;99.90;;;;;;5012495;28;20042;-64
2023/10/23 07:16:16;;;;;;;10.65;5.80;;;6.20;99.90;;;;;;5021367;28;20050;-65
2023/10/23 07:18:48;;;;;;;11.93;3.60;;;6.30;99.90;;;;;;5024584;28;20049;-65
2023/10/23 07:21:23;;;;;;;10.50;4.78;;;6.20;99.90;;;;;;5020105;28;20112;-64
2023/10/23 07:23:55;;;;;;;14.95;9.65;;;6.30;99.90;;;;;;5021777;28;20069;-64
2023/10/23 07:26:27;;;;;;;90.40;56.03;;;6.30;99.90;;;;;;5019350;28;20137;-64
2023/10/23 07:28:59;;;;;;;948.00;361.70;;;6.30;99.90;;;;;;5002479;28;20045;-64
2023/10/23 07:31:31;;;;;;;400.10;131.45;;;6.30;99.90;;;;;;5022648;28;20038;-65
2023/10/23 07:34:03;;;;;;;21.83;11.13;;;6.40;99.90;;;;;;5012166;28;20041;-65
2023/10/23 07:36:37;;;;;;;419.83;203.70;;;6.40;99.90;;;;;;5012562;28;20037;-64
2023/10/23 07:39:09;;;;;;;;;;;6.50;99.90;;;;;;5013273;28;20068;-65
2023/10/23 07:41:41;;;;;;;13.63;11.00;;;6.60;99.90;;;;;;5025351;28;19956;-64
2023/10/23 07:44:12;;;;;;;9.50;5.75;;;6.60;99.90;;;;;;5022273;28;20065;-64
2023/10/23 07:46:46;;;;;;;6.63;5.32;;;6.70;99.90;;;;;;5018248;28;20053;-65
2023/10/23 07:49:13;;;;;;;6.55;5.63;;;6.80;99.90;;;;;;5017600;28;20046;-64
2023/10/23 07:51:45;;;;;;;8.23;6.32;;;6.90;99.90;;;;;;5008456;28;20045;-65
2023/10/23 07:54:16;;;;;;;7.80;6.38;;;7.00;99.90;;;;;;5023003;28;20037;-65
2023/10/23 07:56:49;;;;;;;12.75;10.00;;;7.10;99.90;;;;;;5018719;28;20048;-64
2023/10/23 07:59:21;;;;;;;9.70;7.97;;;7.30;99.90;;;;;;5019379;28;20070;-65
2023/10/23 08:01:53;;;;;;;14.32;10.68;;;7.40;99.90;;;;;;5018623;28;20046;-65
2023/10/23 08:04:20;;;;;;;25.52;20.40;;;7.50;99.90;;;;;;5014709;28;20064;-64
2023/10/23 08:06:52;;;;;;;20.58;15.75;;;7.60;99.90;;;;;;5020334;28;20053;-64
2023/10/23 08:09:23;;;;;;;23.10;15.35;;;7.70;99.90;;;;;;5013449;28;20065;-65
2023/10/23 08:11:55;;;;;;;88.45;59.35;;;7.90;99.90;;;;;;5015827;28;20044;-65
2023/10/23 08:14:27;;;;;;;46.83;33.42;;;8.00;99.90;;;;;;5014387;28;20050;-64
2023/10/23 08:16:59;;;;;;;47.40;34.97;;;8.20;99.90;;;;;;5022699;28;20037;-65
2023/10/23 08:19:31;;;;;;;33.53;23.98;;;8.30;99.90;;;;;;5007508;28;20049;-64
2023/10/23 08:22:03;;;;;;;19.23;14.02;;;8.40;99.90;;;;;;5018813;28;20408;-65
2023/10/23 08:24:35;;;;;;;13.40;9.70;;;8.60;99.90;;;;;;5021474;28;20069;-65
2023/10/23 08:27:06;;;;;;;17.55;11.27;;;8.70;99.90;;;;;;5019323;28;20041;-64
2023/10/23 08:29:38;;;;;;;21.60;15.25;;;8.70;99.90;;;;;;5019220;28;20509;-64
2023/10/23 08:32:10;;;;;;;20.35;15.80;;;8.80;99.90;;;;;;5024137;28;20041;-64
2023/10/23 08:34:42;;;;;;;22.42;13.52;;;8.90;99.90;;;;;;5017843;28;20147;-64
2023/10/23 08:37:16;;;;;;;12.18;8.60;;;9.00;99.90;;;;;;5014424;28;20030;-65
2023/10/23 08:39:48;;;;;;;;;;;9.10;99.90;;;;;;5010805;28;20054;-65
2023/10/23 08:42:21;;;;;;;28.55;17.95;;;9.20;99.90;;;;;;5010590;28;19968;-64
2023/10/23 08:44:50;;;;;;;17.88;12.43;;;9.40;99.90;;;;;;5014316;28;20049;-65
2023/10/23 08:47:22;;;;;;;17.98;14.68;;;9.50;99.90;;;;;;4997292;28;20045;-65
2023/10/23 08:49:59;;;;;;;18.85;12.60;;;9.60;99.90;;;;;;5017130;28;20057;-65
2023/10/23 08:52:38;;;;;;;8.55;7.45;;;9.70;99.90;;;;;;5009002;28;20065;-64
2023/10/23 08:55:14;;;;;;;9.27;6.95;;;9.80;99.90;;;;;;5017529;28;20052;-65
2023/10/23 08:57:48;;;;;;;9.98;8.95;;;9.90;99.90;;;;;;5018928;28;20049;-64
2023/10/23 09:00:22;;;;;;;7.57;5.85;;;10.00;99.90;;;;;;5018577;28;20038;-65
2023/10/23 09:02:55;;;;;;;7.05;6.35;;;10.10;99.90;;;;;;5016489;28;20054;-65
2023/10/23 09:05:26;;;;;;;12.00;8.27;;;10.20;99.90;;;;;;5022414;28;20056;-65
2023/10/23 09:07:54;;;;;;;8.32;7.20;;;10.30;99.90;;;;;;5018583;28;20473;-65
2023/10/23 09:10:26;;;;;;;8.32;7.07;;;10.40;99.90;;;;;;5011345;28;20038;-65
2023/10/23 09:12:58;;;;;;;9.93;8.45;;;10.60;99.90;;;;;;5010684;28;20037;-64
2023/10/23 09:15:25;;;;;;;13.57;8.60;;;10.70;99.90;;;;;;5014362;28;20038;-64
2023/10/23 09:17:58;;;;;;;11.82;7.63;;;10.80;99.90;;;;;;5009680;28;20594;-65
2023/10/23 09:20:26;;;;;;;7.55;5.82;;;10.90;99.90;;;;;;5007862;28;20042;-64
2023/10/23 09:22:58;;;;;;;6.88;5.80;;;11.10;99.90;;;;;;5016061;28;20052;-65
2023/10/23 09:25:30;;;;;;;9.48;6.22;;;11.20;99.90;;;;;;5021804;28;20048;-65
2023/10/23 09:28:10;;;;;;;7.03;5.15;;;11.20;99.90;;;;;;5019553;28;20678;-65
2023/10/23 09:30:42;;;;;;;7.00;5.55;;;11.30;99.90;;;;;;5006787;28;20045;-65
2023/10/23 09:33:14;;;;;;;6.93;5.97;;;11.40;99.90;;;;;;5016245;28;20128;-65
2023/10/23 09:35:47;;;;;;;7.25;4.82;;;11.40;99.90;;;;;;5013077;28;20055;-65
2023/10/23 09:38:15;;;;;;;8.60;5.95;;;11.50;99.90;;;;;;5013981;28;20137;-65
2023/10/23 09:40:47;;;;;;;9.38;6.40;;;11.50;99.90;;;;;;5015769;28;20053;-65
2023/10/23 09:43:19;;;;;;;6.63;5.90;;;11.60;99.90;;;;;;5016213;28;20088;-65
2023/10/23 09:45:47;;;;;;;7.22;5.30;;;11.70;99.90;;;;;;5018636;28;20041;-65
2023/10/23 09:48:20;;;;;;;6.18;5.15;;;11.80;99.90;;;;;;5012534;28;20038;-65
2023/10/23 09:50:52;;;;;;;9.90;4.37;;;11.90;99.90;;;;;;5013897;28;20060;-65
2023/10/23 09:53:20;;;;;;;6.25;4.13;;;12.00;99.90;;;;;;5016449;28;20029;-64
2023/10/23 09:55:49;;;;;;;3.90;3.25;;;12.10;99.90;;;;;;5017347;28;20041;-64
2023/10/23 09:58:20;;;;;;;4.45;3.65;;;12.20;99.90;;;;;;5018026;28;20048;-64
2023/10/23 10:00:53;;;;;;;3.75;3.00;;;12.20;99.90;;;;;;5017964;28;20040;-64
2023/10/23 10:03:27;;;;;;;4.47;2.80;;;12.40;99.90;;;;;;5017759;28;20041;-64
2023/10/23 10:06:09;;;;;;;5.55;2.72;;;12.40;99.90;;;;;;5018939;28;20045;-64
2023/10/23 10:08:48;;;;;;;3.60;2.60;;;12.50;99.90;;;;;;5013762;28;20056;-64
2023/10/23 10:11:21;;;;;;;5.07;2.92;;;12.60;99.90;;;;;;5016708;28;20108;-64
2023/10/23 10:13:53;;;;;;;3.42;2.60;;;12.60;99.90;;;;;;5012542;28;20053;-64
2023/10/23 10:16:26;;;;;;;3.75;3.00;;;12.60;99.90;;;;;;5010279;28;20062;-64
2023/10/23 10:18:59;;;;;;;5.93;3.43;;;12.60;99.90;;;;;;5016095;28;20045;-64
2023/10/23 10:22:00;;;;;;;3.28;2.95;;;12.60;99.90;;;;;;4993083;28;20529;-64
2023/10/23 10:24:34;;;;;;;3.53;3.00;;;12.60;99.90;;;;;;5010330;28;20414;-64
2023/10/23 10:27:07;;;;;;;4.07;3.35;;;12.60;99.90;;;;;;5020054;28;20042;-64
2023/10/23 10:29:38;;;;;;;3.53;3.05;;;12.60;99.90;;;;;;5006037;28;20406;-64
2023/10/23 10:32:10;;;;;;;5.28;3.05;;;12.70;99.90;;;;;;5022100;28;20030;-64
2023/10/23 10:34:45;;;;;;;7.25;3.53;;;12.70;99.90;;;;;;4995535;28;20069;-64
2023/10/23 10:37:17;;;;;;;4.85;3.10;;;12.80;99.90;;;;;;5026381;28;20037;-64
2023/10/23 10:39:52;;;;;;;4.35;2.42;;;12.80;99.90;;;;;;5024542;28;20140;-64
2023/10/23 10:42:28;;;;;;;4.13;3.05;;;12.90;99.90;;;;;;5016147;28;20041;-64
2023/10/23 10:45:09;;;;;;;4.80;2.80;;;13.00;99.90;;;;;;5015106;28;20081;-64
2023/10/23 10:47:45;;;;;;;3.17;2.72;;;13.20;99.90;;;;;;5012830;28;20042;-64
2023/10/23 10:50:33;;;;;;;3.78;2.83;;;13.30;99.90;;;;;;5011542;28;20049;-64
2023/10/23 10:53:07;;;;;;;5.10;3.40;;;13.40;99.90;;;;;;5017317;28;20101;-64
2023/10/23 10:55:36;;;;;;;4.97;3.10;;;13.60;99.90;;;;;;5008304;28;20108;-64
2023/10/23 10:58:10;;;;;;;6.32;4.03;;;13.70;99.90;;;;;;5023460;28;20042;-64
2023/10/23 11:00:43;;;;;;;3.67;2.58;;;13.80;99.90;;;;;;5021887;28;20076;-65
2023/10/23 11:03:14;;;;;;;4.18;2.20;;;13.90;99.90;;;;;;5016546;28;20072;-65
2023/10/23 11:05:46;;;;;;;3.03;1.95;;;13.90;99.90;;;;;;5021863;28;20046;-64
2023/10/23 11:08:18;;;;;;;2.90;2.35;;;13.90;99.90;;;;;;5017705;28;20038;-64
2023/10/23 11:10:49;;;;;;;6.80;2.88;;;14.00;99.90;;;;;;5002187;28;20429;-64
2023/10/23 11:13:21;;;;;;;4.78;2.80;;;14.00;99.90;;;;;;5014264;28;20042;-64
2023/10/23 11:15:52;;;;;;;4.63;2.45;;;14.10;99.90;;;;;;5016422;28;20056;-64
2023/10/23 11:18:24;;;;;;;2.78;2.05;;;14.10;99.90;;;;;;5013481;28;20228;-64
2023/10/23 11:20:59;;;;;;;5.90;3.00;;;14.20;99.90;;;;;;5015657;28;20045;-64
2023/10/23 11:23:30;;;;;;;4.53;2.88;;;14.20;99.90;;;;;;5020010;28;20030;-64
2023/10/23 11:26:03;;;;;;;4.18;2.00;;;14.30;99.90;;;;;;5005838;28;20126;-64
2023/10/23 11:28:37;;;;;;;3.60;3.08;;;14.30;99.90;;;;;;5018812;28;20069;-64
2023/10/23 11:31:09;;;;;;;5.78;3.33;;;14.30;99.90;;;;;;5017786;28;20053;-64
2023/10/23 11:33:43;;;;;;;4.50;3.10;;;14.30;99.90;;;;;;5018007;28;20046;-64
2023/10/23 11:36:15;;;;;;;5.95;2.75;;;14.30;99.90;;;;;;5022339;28;20054;-64
2023/10/23 11:38:47;;;;;;;5.15;2.47;;;14.30;99.90;;;;;;5016407;28;20240;-64
2023/10/23 11:41:14;;;;;;;3.85;2.20;;;14.30;99.90;;;;;;5018103;28;20577;-64
2023/10/23 11:43:46;;;;;;;2.80;2.05;;;14.30;99.90;;;;;;5018309;28;20501;-64
2023/10/23 11:46:18;;;;;;;5.90;2.67;;;14.30;99.90;;;;;;5013891;28;20041;-64
2023/10/23 11:48:50;;;;;;;3.00;2.50;;;14.20;99.90;;;;;;5011322;28;20406;-64
2023/10/23 11:51:22;;;;;;;3.42;2.25;;;14.20;99.90;;;;;;5014908;28;20049;-65
2023/10/23 11:53:55;;;;;;;3.35;2.55;;;14.10;99.90;;;;;;5014746;28;20056;-64
2023/10/23 11:56:27;;;;;;;4.82;2.75;;;14.10;99.90;;;;;;5025102;28;20049;-65
2023/10/23 11:59:00;;;;;;;3.30;2.30;;;14.00;99.90;;;;;;5019520;28;20123;-64
2023/10/23 12:01:32;;;;;;;5.17;3.60;;;14.00;99.90;;;;;;5021045;28;20046;-64
2023/10/23 12:04:04;;;;;;;3.60;2.13;;;13.90;99.90;;;;;;5020582;28;20295;-64
2023/10/23 12:06:37;;;;;;;4.07;2.70;;;13.90;99.90;;;;;;5016604;28;20099;-64
2023/10/23 12:09:10;;;;;;;12.57;6.95;;;13.90;99.90;;;;;;5019785;28;20077;-64
2023/10/23 12:11:42;;;;;;;9.10;5.72;;;13.90;99.90;;;;;;5014977;28;20052;-64
2023/10/23 12:14:14;;;;;;;4.65;3.30;;;13.90;99.90;;;;;;5012106;28;20496;-64
2023/10/23 12:16:46;;;;;;;3.70;2.40;;;14.00;99.90;;;;;;5007820;28;20149;-64
2023/10/23 12:19:19;;;;;;;4.25;2.45;;;14.00;99.90;;;;;;5019746;28;20501;-64
2023/10/23 12:21:50;;;;;;;3.45;2.42;;;14.10;99.90;;;;;;5018430;28;20042;-64
2023/10/23 12:24:22;;;;;;;3.85;2.20;;;14.20;99.90;;;;;;5014127;28;20073;-64
2023/10/23 12:26:54;;;;;;;17.67;6.80;;;14.40;99.90;;;;;;5017260;28;20052;-64
2023/10/23 12:29:26;;;;;;;5.43;2.65;;;14.60;99.90;;;;;;5020049;28;20074;-64
2023/10/23 12:31:53;;;;;;;8.43;3.95;;;14.70;99.90;;;;;;5012808;28;20099;-64
2023/10/23 12:34:25;;;;;;;4.93;2.75;;;14.80;99.90;;;;;;5020772;28;20048;-64
2023/10/23 12:36:57;;;;;;;7.65;5.32;;;14.80;99.90;;;;;;5022527;28;20044;-64
2023/10/23 12:39:25;;;;;;;6.63;3.42;;;14.90;99.90;;;;;;5017971;28;20034;-64
2023/10/23 12:41:57;;;;;;;3.70;2.75;;;14.90;99.90;;;;;;5014907;28;20042;-65
2023/10/23 12:44:29;;;;;;;4.78;2.53;;;15.00;99.90;;;;;;5011447;28;20536;-64
2023/10/23 12:47:00;;;;;;;3.58;2.38;;;15.00;99.90;;;;;;4995786;28;20042;-64
2023/10/23 12:49:32;;;;;;;3.00;2.20;;;15.00;99.90;;;;;;5012791;28;20034;-64
2023/10/23 12:52:04;;;;;;;4.15;2.30;;;14.90;99.90;;;;;;5018164;28;20060;-64
2023/10/23 12:54:36;;;;;;;4.18;2.70;;;14.90;99.90;;;;;;5011233;28;20124;-64
2023/10/23 12:57:08;;;;;;;5.38;3.67;;;14.90;99.90;;;;;;5022615;28;20417;-64
2023/10/23 12:59:40;;;;;;;13.23;3.10;;;14.90;99.90;;;;;;5017715;28;20049;-64
2023/10/23 13:02:12;;;;;;;2.97;2.30;;;14.90;99.90;;;;;;5018222;28;20053;-64
2023/10/23 13:04:44;;;;;;;5.82;2.40;;;14.90;99.90;;;;;;5019818;28;20041;-64
2023/10/23 13:07:15;;;;;;;4.88;2.35;;;14.90;99.90;;;;;;5003891;28;20410;-64
2023/10/23 13:09:47;;;;;;;3.22;2.22;;;14.90;99.90;;;;;;5020106;28;20045;-64
2023/10/23 13:12:19;;;;;;;3.78;1.90;;;14.80;99.90;;;;;;5022499;28;20054;-64
2023/10/23 13:14:50;;;;;;;2.63;1.63;;;14.80;99.90;;;;;;5028398;28;20441;-64